sensor_id;sensor_type;location;lat;lon;timestamp;pressure;altitude;pressure_sealevel;temperature;humidity
67517;BME280;54359;59.124;37.910;2023-01-27T00:00:20;99525.88;;;0.78;88.38
67517;BME280;54359;59.124;37.910;2023-01-27T00:02:51;99536.78;;;0.77;88.50
67517;BME280;54359;59.124;37.910;2023-01-27T00:05:20;99518.22;;;0.76;88.23
67517;BME280;54359;59.124;37.910;2023-01-27T00:07:50;99521.53;;;0.75;88.00
67517;BME280;54359;59.124;37.910;2023-01-27T00:10:19;99485.16;;;0.52;88.28
67517;BME280;54359;59.124;37.910;2023-01-27T00:12:49;99482.91;;;0.58;87.93
67517;BME280;54359;59.124;37.910;2023-01-27T00:15:34;99517.22;;;0.73;88.50
67517;BME280;54359;59.124;37.910;2023-01-27T00:18:07;99522.34;;;0.74;88.21
67517;BME280;54359;59.124;37.910;2023-01-27T00:20:33;99500.94;;;0.66;88.09
67517;BME280;54359;59.124;37.910;2023-01-27T00:23:23;99512.91;;;0.70;88.23
67517;BME280;54359;59.124;37.910;2023-01-27T00:26:11;99524.88;;;0.74;88.29
67517;BME280;54359;59.124;37.910;2023-01-27T00:28:47;99519.00;;;0.75;88.34
67517;BME280;54359;59.124;37.910;2023-01-27T00:31:17;99519.06;;;0.77;88.34
67517;BME280;54359;59.124;37.910;2023-01-27T00:34:07;99521.00;;;0.83;88.50
67517;BME280;54359;59.124;37.910;2023-01-27T00:36:55;99521.75;;;0.80;88.46
67517;BME280;54359;59.124;37.910;2023-01-27T00:39:24;99533.78;;;0.86;88.44
67517;BME280;54359;59.124;37.910;2023-01-27T00:41:56;99479.63;;;0.61;88.20
67517;BME280;54359;59.124;37.910;2023-01-27T00:44:23;99521.13;;;0.86;88.02
67517;BME280;54359;59.124;37.910;2023-01-27T00:47:03;99540.00;;;0.94;88.23
67517;BME280;54359;59.124;37.910;2023-01-27T00:49:30;99535.69;;;0.91;87.90
67517;BME280;54359;59.124;37.910;2023-01-27T00:51:58;99529.53;;;0.85;88.65
67517;BME280;54359;59.124;37.910;2023-01-27T00:54:27;99540.66;;;0.88;88.67
67517;BME280;54359;59.124;37.910;2023-01-27T00:56:57;99536.44;;;0.89;87.94
67517;BME280;54359;59.124;37.910;2023-01-27T00:59:29;99536.38;;;0.87;88.43
67517;BME280;54359;59.124;37.910;2023-01-27T01:02:02;99519.22;;;0.80;88.33
67517;BME280;54359;59.124;37.910;2023-01-27T01:04:31;99538.16;;;0.90;88.51
67517;BME280;54359;59.124;37.910;2023-01-27T01:06:58;99515.81;;;0.79;88.07
67517;BME280;54359;59.124;37.910;2023-01-27T01:09:34;99522.94;;;0.88;87.89
67517;BME280;54359;59.124;37.910;2023-01-27T01:12:02;99538.22;;;0.91;88.67
67517;BME280;54359;59.124;37.910;2023-01-27T01:14:30;99464.16;;;0.53;88.11
67517;BME280;54359;59.124;37.910;2023-01-27T01:16:57;99528.38;;;0.97;87.92
67517;BME280;54359;59.124;37.910;2023-01-27T01:19:23;99517.81;;;0.87;88.47
67517;BME280;54359;59.124;37.910;2023-01-27T01:21:52;99527.31;;;0.92;88.36
67517;BME280;54359;59.124;37.910;2023-01-27T01:24:20;99534.28;;;0.98;87.68
67517;BME280;54359;59.124;37.910;2023-01-27T01:26:50;99518.97;;;0.95;88.15
67517;BME280;54359;59.124;37.910;2023-01-27T01:29:26;99527.50;;;0.97;87.98
67517;BME280;54359;59.124;37.910;2023-01-27T01:32:00;99542.09;;;1.03;87.88
67517;BME280;54359;59.124;37.910;2023-01-27T01:34:27;99515.63;;;0.96;88.52
67517;BME280;54359;59.124;37.910;2023-01-27T01:36:53;99536.28;;;1.05;87.92
67517;BME280;54359;59.124;37.910;2023-01-27T01:39:23;99533.06;;;1.09;88.09
67517;BME280;54359;59.124;37.910;2023-01-27T01:41:50;99509.78;;;0.97;88.56
67517;BME280;54359;59.124;37.910;2023-01-27T01:44:41;99533.81;;;1.07;88.30
67517;BME280;54359;59.124;37.910;2023-01-27T01:47:18;99524.38;;;1.03;88.12
67517;BME280;54359;59.124;37.910;2023-01-27T01:49:47;99532.00;;;1.04;88.30
67517;BME280;54359;59.124;37.910;2023-01-27T01:52:20;99537.28;;;1.09;88.05
67517;BME280;54359;59.124;37.910;2023-01-27T01:54:50;99510.31;;;0.90;88.03
67517;BME280;54359;59.124;37.910;2023-01-27T01:57:35;99540.72;;;1.11;87.66
67517;BME280;54359;59.124;37.910;2023-01-27T02:00:07;99527.94;;;1.08;88.19
67517;BME280;54359;59.124;37.910;2023-01-27T02:02:41;99537.63;;;1.18;87.98
67517;BME280;54359;59.124;37.910;2023-01-27T02:05:16;99522.44;;;1.18;88.07
67517;BME280;54359;59.124;37.910;2023-01-27T02:08:23;99547.16;;;1.24;88.29
67517;BME280;54359;59.124;37.910;2023-01-27T02:10:51;99549.75;;;1.25;88.21
67517;BME280;54359;59.124;37.910;2023-01-27T02:13:21;99529.13;;;1.16;88.31
67517;BME280;54359;59.124;37.910;2023-01-27T02:15:47;99548.09;;;1.26;88.23
67517;BME280;54359;59.124;37.910;2023-01-27T02:18:21;99533.63;;;1.23;88.48
67517;BME280;54359;59.124;37.910;2023-01-27T02:20:50;99543.34;;;1.33;88.06
67517;BME280;54359;59.124;37.910;2023-01-27T02:23:47;99551.19;;;1.39;87.98
67517;BME280;54359;59.124;37.910;2023-01-27T02:26:33;99548.81;;;1.44;88.01
67517;BME280;54359;59.124;37.910;2023-01-27T02:29:06;99552.34;;;1.48;88.80
67517;BME280;54359;59.124;37.910;2023-01-27T02:31:32;99555.66;;;1.47;88.21
67517;BME280;54359;59.124;37.910;2023-01-27T02:34:15;99554.91;;;1.49;88.08
67517;BME280;54359;59.124;37.910;2023-01-27T02:36:49;99551.66;;;1.52;88.43
67517;BME280;54359;59.124;37.910;2023-01-27T02:39:21;99558.38;;;1.51;88.18
67517;BME280;54359;59.124;37.910;2023-01-27T02:41:55;99557.59;;;1.52;88.42
67517;BME280;54359;59.124;37.910;2023-01-27T02:44:23;99541.16;;;1.43;88.16
67517;BME280;54359;59.124;37.910;2023-01-27T02:46:52;99555.06;;;1.52;88.30
67517;BME280;54359;59.124;37.910;2023-01-27T02:49:21;99554.13;;;1.50;88.11
67517;BME280;54359;59.124;37.910;2023-01-27T02:51:49;99548.25;;;1.51;88.39
67517;BME280;54359;59.124;37.910;2023-01-27T02:54:17;99551.69;;;1.53;88.55
67517;BME280;54359;59.124;37.910;2023-01-27T02:56:46;99556.72;;;1.52;88.32
67517;BME280;54359;59.124;37.910;2023-01-27T02:59:16;99557.59;;;1.52;88.64
67517;BME280;54359;59.124;37.910;2023-01-27T03:01:45;99554.22;;;1.53;88.60
67517;BME280;54359;59.124;37.910;2023-01-27T03:04:20;99557.06;;;1.61;88.65
67517;BME280;54359;59.124;37.910;2023-01-27T03:07:08;99550.91;;;1.54;88.12
67517;BME280;54359;59.124;37.910;2023-01-27T03:09:36;99563.94;;;1.64;88.10
67517;BME280;54359;59.124;37.910;2023-01-27T03:12:05;99556.03;;;1.56;88.63
67517;BME280;54359;59.124;37.910;2023-01-27T03:15:28;99570.81;;;1.66;88.22
67517;BME280;54359;59.124;37.910;2023-01-27T03:18:15;99572.50;;;1.67;88.48
67517;BME280;54359;59.124;37.910;2023-01-27T03:20:48;99560.47;;;1.61;88.50
67517;BME280;54359;59.124;37.910;2023-01-27T03:23:17;99551.09;;;1.59;87.95
67517;BME280;54359;59.124;37.910;2023-01-27T03:25:50;99552.09;;;1.63;88.56
67517;BME280;54359;59.124;37.910;2023-01-27T03:28:24;99565.06;;;1.70;88.34
67517;BME280;54359;59.124;37.910;2023-01-27T03:31:13;99548.63;;;1.60;88.61
67517;BME280;54359;59.124;37.910;2023-01-27T03:33:57;99576.13;;;1.72;88.35
67517;BME280;54359;59.124;37.910;2023-01-27T03:36:44;99578.75;;;1.75;88.78
67517;BME280;54359;59.124;37.910;2023-01-27T03:39:33;99576.16;;;1.74;88.73
67517;BME280;54359;59.124;37.910;2023-01-27T03:42:18;99575.22;;;1.72;88.05
67517;BME280;54359;59.124;37.910;2023-01-27T03:45:05;99582.22;;;1.77;88.68
67517;BME280;54359;59.124;37.910;2023-01-27T03:47:53;99586.97;;;1.70;88.49
67517;BME280;54359;59.124;37.910;2023-01-27T03:50:31;99583.72;;;1.72;88.61
67517;BME280;54359;59.124;37.910;2023-01-27T03:53:36;99589.63;;;1.73;88.31
67517;BME280;54359;59.124;37.910;2023-01-27T03:56:03;99600.81;;;1.78;88.33
67517;BME280;54359;59.124;37.910;2023-01-27T03:58:39;99610.94;;;1.78;87.73
67517;BME280;54359;59.124;37.910;2023-01-27T04:01:51;99598.91;;;1.72;88.04
67517;BME280;54359;59.124;37.910;2023-01-27T04:05:27;99602.91;;;1.67;87.81
67517;BME280;54359;59.124;37.910;2023-01-27T04:08:15;99587.91;;;1.51;88.12
67517;BME280;54359;59.124;37.910;2023-01-27T04:10:48;99604.88;;;1.53;88.09
67517;BME280;54359;59.124;37.910;2023-01-27T04:13:35;99619.56;;;1.60;88.31
67517;BME280;54359;59.124;37.910;2023-01-27T04:16:18;99592.13;;;1.50;88.46
67517;BME280;54359;59.124;37.910;2023-01-27T04:19:16;99612.75;;;1.59;88.59
67517;BME280;54359;59.124;37.910;2023-01-27T04:22:09;99619.47;;;1.59;88.42
67517;BME280;54359;59.124;37.910;2023-01-27T04:24:43;99598.19;;;1.54;88.23
67517;BME280;54359;59.124;37.910;2023-01-27T04:27:13;99603.28;;;1.55;88.36
67517;BME280;54359;59.124;37.910;2023-01-27T04:29:50;99610.28;;;1.61;88.50
67517;BME280;54359;59.124;37.910;2023-01-27T04:36:07;99610.34;;;1.63;88.03
67517;BME280;54359;59.124;37.910;2023-01-27T04:38:37;99604.84;;;1.52;87.67
67517;BME280;54359;59.124;37.910;2023-01-27T04:41:52;99601.31;;;1.48;88.28
67517;BME280;54359;59.124;37.910;2023-01-27T04:44:34;99630.28;;;1.55;87.81
67517;BME280;54359;59.124;37.910;2023-01-27T04:47:48;99631.78;;;1.50;87.72
67517;BME280;54359;59.124;37.910;2023-01-27T04:50:36;99623.97;;;1.45;87.62
67517;BME280;54359;59.124;37.910;2023-01-27T04:53:54;99635.66;;;1.42;87.72
67517;BME280;54359;59.124;37.910;2023-01-27T04:56:57;99611.97;;;1.20;87.98
67517;BME280;54359;59.124;37.910;2023-01-27T04:59:50;99659.19;;;1.39;88.29
67517;BME280;54359;59.124;37.910;2023-01-27T05:02:44;99644.47;;;1.30;88.12
67517;BME280;54359;59.124;37.910;2023-01-27T05:05:11;99639.16;;;1.24;87.72
67517;BME280;54359;59.124;37.910;2023-01-27T05:07:38;99647.94;;;1.32;88.58
67517;BME280;54359;59.124;37.910;2023-01-27T05:10:05;99659.81;;;1.33;88.35
67517;BME280;54359;59.124;37.910;2023-01-27T05:12:32;99640.91;;;1.25;88.09
67517;BME280;54359;59.124;37.910;2023-01-27T05:15:02;99664.88;;;1.33;87.82
67517;BME280;54359;59.124;37.910;2023-01-27T05:17:47;99618.06;;;1.04;87.75
67517;BME280;54359;59.124;37.910;2023-01-27T05:20:13;99619.59;;;1.00;87.60
67517;BME280;54359;59.124;37.910;2023-01-27T05:22:42;99662.50;;;1.17;88.20
67517;BME280;54359;59.124;37.910;2023-01-27T05:25:11;99680.41;;;1.22;87.74
67517;BME280;54359;59.124;37.910;2023-01-27T05:27:39;99642.25;;;0.97;87.79
67517;BME280;54359;59.124;37.910;2023-01-27T05:30:05;99663.09;;;1.11;87.73
67517;BME280;54359;59.124;37.910;2023-01-27T05:32:33;99683.44;;;1.14;88.00
67517;BME280;54359;59.124;37.910;2023-01-27T05:35:00;99681.28;;;1.03;87.62
67517;BME280;54359;59.124;37.910;2023-01-27T05:37:28;99692.13;;;1.00;88.05
67517;BME280;54359;59.124;37.910;2023-01-27T05:40:30;99710.63;;;0.99;87.78
67517;BME280;54359;59.124;37.910;2023-01-27T05:43:54;99723.81;;;0.92;87.91
67517;BME280;54359;59.124;37.910;2023-01-27T05:46:30;99699.50;;;0.76;87.92
67517;BME280;54359;59.124;37.910;2023-01-27T05:49:12;99721.34;;;0.74;87.65
67517;BME280;54359;59.124;37.910;2023-01-27T05:52:09;99732.72;;;0.84;88.04
67517;BME280;54359;59.124;37.910;2023-01-27T05:54:37;99739.44;;;0.83;87.79
67517;BME280;54359;59.124;37.910;2023-01-27T05:57:59;99717.16;;;0.56;87.40
67517;BME280;54359;59.124;37.910;2023-01-27T06:00:31;99749.88;;;0.71;87.36
67517;BME280;54359;59.124;37.910;2023-01-27T06:03:31;99748.06;;;0.69;88.01
67517;BME280;54359;59.124;37.910;2023-01-27T06:10:30;99689.97;;;0.33;87.88
67517;BME280;54359;59.124;37.910;2023-01-27T06:12:58;99728.22;;;0.58;87.40
67517;BME280;54359;59.124;37.910;2023-01-27T06:15:25;99723.81;;;0.54;87.50
67517;BME280;54359;59.124;37.910;2023-01-27T06:17:50;99731.47;;;0.56;87.90
67517;BME280;54359;59.124;37.910;2023-01-27T06:20:16;99738.47;;;0.62;87.92
67517;BME280;54359;59.124;37.910;2023-01-27T06:22:44;99741.13;;;0.65;88.00
67517;BME280;54359;59.124;37.910;2023-01-27T06:25:11;99690.59;;;0.29;87.78
67517;BME280;54359;59.124;37.910;2023-01-27T06:27:39;99745.06;;;0.58;88.05
67517;BME280;54359;59.124;37.910;2023-01-27T06:30:05;99740.50;;;0.51;87.93
67517;BME280;54359;59.124;37.910;2023-01-27T06:32:35;99738.97;;;0.54;88.05
67517;BME280;54359;59.124;37.910;2023-01-27T06:35:02;99740.78;;;0.57;87.85
67517;BME280;54359;59.124;37.910;2023-01-27T06:37:28;99748.44;;;0.58;88.19
67517;BME280;54359;59.124;37.910;2023-01-27T06:39:54;99764.91;;;0.68;88.06
67517;BME280;54359;59.124;37.910;2023-01-27T06:42:24;99761.66;;;0.53;88.19
67517;BME280;54359;59.124;37.910;2023-01-27T06:44:55;99769.69;;;0.44;87.52
67517;BME280;54359;59.124;37.910;2023-01-27T06:47:23;99793.47;;;0.48;88.22
67517;BME280;54359;59.124;37.910;2023-01-27T06:49:49;99780.44;;;0.40;87.59
67517;BME280;54359;59.124;37.910;2023-01-27T06:52:15;99775.25;;;0.37;87.66
67517;BME280;54359;59.124;37.910;2023-01-27T06:58:06;99819.47;;;0.45;88.31
67517;BME280;54359;59.124;37.910;2023-01-27T07:00:34;99809.41;;;0.47;88.13
67517;BME280;54359;59.124;37.910;2023-01-27T07:03:01;99805.53;;;0.35;87.76
67517;BME280;54359;59.124;37.910;2023-01-27T07:05:28;99801.09;;;0.31;87.80
67517;BME280;54359;59.124;37.910;2023-01-27T07:07:54;99820.34;;;0.46;88.40
67517;BME280;54359;59.124;37.910;2023-01-27T07:10:20;99793.22;;;0.25;87.68
67517;BME280;54359;59.124;37.910;2023-01-27T07:12:45;99810.63;;;0.19;87.44
67517;BME280;54359;59.124;37.910;2023-01-27T07:15:12;99843.78;;;0.25;87.64
67517;BME280;54359;59.124;37.910;2023-01-27T07:17:38;99788.50;;;-0.19;87.47
67517;BME280;54359;59.124;37.910;2023-01-27T07:20:06;99865.13;;;0.14;87.49
67517;BME280;54359;59.124;37.910;2023-01-27T07:22:32;99830.97;;;-0.12;87.74
67517;BME280;54359;59.124;37.910;2023-01-27T07:24:58;99805.16;;;-0.39;87.54
67517;BME280;54359;59.124;37.910;2023-01-27T07:27:24;99861.75;;;-0.19;87.53
67517;BME280;54359;59.124;37.910;2023-01-27T07:29:52;99858.13;;;-0.25;87.48
67517;BME280;54359;59.124;37.910;2023-01-27T07:32:19;99869.00;;;-0.42;87.44
67517;BME280;54359;59.124;37.910;2023-01-27T07:34:44;99874.53;;;-0.49;87.33
67517;BME280;54359;59.124;37.910;2023-01-27T07:37:11;99860.13;;;-0.67;87.38
67517;BME280;54359;59.124;37.910;2023-01-27T07:39:37;99889.91;;;-0.61;87.29
67517;BME280;54359;59.124;37.910;2023-01-27T07:42:05;99860.63;;;-0.89;87.37
67517;BME280;54359;59.124;37.910;2023-01-27T07:44:33;99855.19;;;-0.96;87.78
67517;BME280;54359;59.124;37.910;2023-01-27T07:47:00;99891.53;;;-0.78;87.91
67517;BME280;54359;59.124;37.910;2023-01-27T07:49:27;99869.97;;;-0.88;87.60
67517;BME280;54359;59.124;37.910;2023-01-27T07:51:53;99900.03;;;-0.76;87.46
67517;BME280;54359;59.124;37.910;2023-01-27T07:54:19;99846.97;;;-1.09;87.76
67517;BME280;54359;59.124;37.910;2023-01-27T07:56:45;99866.53;;;-1.05;87.96
67517;BME280;54359;59.124;37.910;2023-01-27T07:59:13;99893.72;;;-0.84;87.74
67517;BME280;54359;59.124;37.910;2023-01-27T08:01:39;99890.25;;;-0.86;87.33
67517;BME280;54359;59.124;37.910;2023-01-27T08:04:07;99903.47;;;-0.90;87.46
67517;BME280;54359;59.124;37.910;2023-01-27T08:10:17;99920.34;;;-0.89;87.46
67517;BME280;54359;59.124;37.910;2023-01-27T08:13:58;99930.94;;;-0.80;87.53
67517;BME280;54359;59.124;37.910;2023-01-27T08:16:36;99936.53;;;-0.86;87.22
67517;BME280;54359;59.124;37.910;2023-01-27T08:19:19;99950.78;;;-0.86;87.28
67517;BME280;54359;59.124;37.910;2023-01-27T08:22:12;99962.94;;;-0.79;87.45
67517;BME280;54359;59.124;37.910;2023-01-27T08:25:48;99951.38;;;-0.75;87.41
67517;BME280;54359;59.124;37.910;2023-01-27T08:28:15;99911.72;;;-0.93;87.46
67517;BME280;54359;59.124;37.910;2023-01-27T08:30:42;99953.09;;;-0.74;87.51
67517;BME280;54359;59.124;37.910;2023-01-27T08:33:11;99965.53;;;-0.63;87.78
67517;BME280;54359;59.124;37.910;2023-01-27T08:39:24;99964.00;;;-0.44;87.70
67517;BME280;54359;59.124;37.910;2023-01-27T08:43:14;99976.47;;;-0.47;87.30
67517;BME280;54359;59.124;37.910;2023-01-27T08:47:06;99969.69;;;-0.48;87.45
67517;BME280;54359;59.124;37.910;2023-01-27T08:49:32;99966.09;;;-0.52;87.59
67517;BME280;54359;59.124;37.910;2023-01-27T08:51:58;99943.69;;;-0.62;87.54
67517;BME280;54359;59.124;37.910;2023-01-27T08:54:23;99963.91;;;-0.46;87.11
67517;BME280;54359;59.124;37.910;2023-01-27T08:56:49;99977.59;;;-0.42;87.39
67517;BME280;54359;59.124;37.910;2023-01-27T08:59:15;99980.28;;;-0.39;86.90
67517;BME280;54359;59.124;37.910;2023-01-27T09:01:41;99918.03;;;-0.70;87.64
67517;BME280;54359;59.124;37.910;2023-01-27T09:04:07;99940.53;;;-0.58;87.44
67517;BME280;54359;59.124;37.910;2023-01-27T09:06:32;99938.47;;;-0.65;87.22
67517;BME280;54359;59.124;37.910;2023-01-27T09:08:58;99989.22;;;-0.29;87.39
67517;BME280;54359;59.124;37.910;2023-01-27T09:11:41;99953.88;;;-0.61;86.89
67517;BME280;54359;59.124;37.910;2023-01-27T09:14:08;99961.53;;;-0.59;87.20
67517;BME280;54359;59.124;37.910;2023-01-27T09:16:34;99990.59;;;-0.51;87.39
67517;BME280;54359;59.124;37.910;2023-01-27T09:19:02;100004.25;;;-0.47;87.39
67517;BME280;54359;59.124;37.910;2023-01-27T09:21:29;100018.78;;;-0.43;87.13
67517;BME280;54359;59.124;37.910;2023-01-27T09:24:17;100023.94;;;-0.56;86.95
67517;BME280;54359;59.124;37.910;2023-01-27T09:26:45;99970.31;;;-0.98;87.10
67517;BME280;54359;59.124;37.910;2023-01-27T09:29:13;100005.75;;;-0.81;87.26
67517;BME280;54359;59.124;37.910;2023-01-27T09:31:46;100024.72;;;-0.72;87.57
67517;BME280;54359;59.124;37.910;2023-01-27T09:34:20;99982.91;;;-0.98;86.88
67517;BME280;54359;59.124;37.910;2023-01-27T09:37:04;100012.38;;;-0.83;87.48
67517;BME280;54359;59.124;37.910;2023-01-27T09:39:58;100025.59;;;-0.87;87.30
67517;BME280;54359;59.124;37.910;2023-01-27T09:43:23;100028.81;;;-0.89;87.39
67517;BME280;54359;59.124;37.910;2023-01-27T09:46:06;100006.22;;;-1.03;86.88
67517;BME280;54359;59.124;37.910;2023-01-27T09:49:16;100027.97;;;-1.05;86.90
67517;BME280;54359;59.124;37.910;2023-01-27T09:54:22;100042.50;;;-1.00;87.20
67517;BME280;54359;59.124;37.910;2023-01-27T09:57:34;100034.22;;;-1.13;86.80
67517;BME280;54359;59.124;37.910;2023-01-27T10:00:41;100007.16;;;-1.30;86.47
67517;BME280;54359;59.124;37.910;2023-01-27T10:03:08;100052.59;;;-1.00;86.85
67517;BME280;54359;59.124;37.910;2023-01-27T10:14:31;100077.59;;;-1.18;86.19
67517;BME280;54359;59.124;37.910;2023-01-27T10:26:53;100080.38;;;-1.29;86.60
67517;BME280;54359;59.124;37.910;2023-01-27T10:29:57;100082.28;;;-1.25;86.44
67517;BME280;54359;59.124;37.910;2023-01-27T10:33:11;100070.53;;;-1.39;87.00
67517;BME280;54359;59.124;37.910;2023-01-27T10:36:25;100068.75;;;-1.40;86.58
67517;BME280;54359;59.124;37.910;2023-01-27T10:42:44;100096.78;;;-1.35;86.11
67517;BME280;54359;59.124;37.910;2023-01-27T10:49:42;100100.66;;;-1.40;86.45
67517;BME280;54359;59.124;37.910;2023-01-27T10:53:06;100079.13;;;-1.64;86.35
67517;BME280;54359;59.124;37.910;2023-01-27T10:55:53;100065.97;;;-1.73;86.38
67517;BME280;54359;59.124;37.910;2023-01-27T11:05:29;100142.25;;;-1.62;86.47
67517;BME280;54359;59.124;37.910;2023-01-27T11:08:01;100099.25;;;-1.92;86.66
67517;BME280;54359;59.124;37.910;2023-01-27T11:10:45;100147.94;;;-1.65;86.56
67517;BME280;54359;59.124;37.910;2023-01-27T11:14:58;100109.03;;;-1.96;86.20
67517;BME280;54359;59.124;37.910;2023-01-27T11:18:19;100125.00;;;-1.96;86.69
67517;BME280;54359;59.124;37.910;2023-01-27T11:28:16;100171.22;;;-1.95;85.80
67517;BME280;54359;59.124;37.910;2023-01-27T11:37:29;100184.91;;;-2.05;86.63
67517;BME280;54359;59.124;37.910;2023-01-27T11:41:08;100182.06;;;-2.10;86.14
67517;BME280;54359;59.124;37.910;2023-01-27T11:44:08;100192.72;;;-2.14;86.32
67517;BME280;54359;59.124;37.910;2023-01-27T11:46:57;100199.88;;;-2.20;86.16
67517;BME280;54359;59.124;37.910;2023-01-27T11:49:29;100158.97;;;-2.56;86.47
67517;BME280;54359;59.124;37.910;2023-01-27T11:52:04;100205.97;;;-2.30;86.37
67517;BME280;54359;59.124;37.910;2023-01-27T11:54:55;100212.56;;;-2.32;86.71
67517;BME280;54359;59.124;37.910;2023-01-27T11:58:07;100219.22;;;-2.32;86.33
67517;BME280;54359;59.124;37.910;2023-01-27T12:04:11;100201.88;;;-2.41;86.17
67517;BME280;54359;59.124;37.910;2023-01-27T12:07:20;100222.81;;;-2.29;85.93
67517;BME280;54359;59.124;37.910;2023-01-27T12:10:40;100206.03;;;-2.41;85.56
67517;BME280;54359;59.124;37.910;2023-01-27T12:13:24;100220.06;;;-2.45;86.30
67517;BME280;54359;59.124;37.910;2023-01-27T12:16:04;100182.47;;;-2.69;86.13
67517;BME280;54359;59.124;37.910;2023-01-27T12:19:28;100237.22;;;-2.39;86.35
67517;BME280;54359;59.124;37.910;2023-01-27T12:22:16;100228.41;;;-2.46;86.36
67517;BME280;54359;59.124;37.910;2023-01-27T12:25:05;100218.97;;;-2.49;86.15
67517;BME280;54359;59.124;37.910;2023-01-27T12:31:58;100248.63;;;-2.45;86.14
67517;BME280;54359;59.124;37.910;2023-01-27T12:34:56;100221.66;;;-2.59;85.24
67517;BME280;54359;59.124;37.910;2023-01-27T12:37:29;100247.19;;;-2.41;86.30
67517;BME280;54359;59.124;37.910;2023-01-27T12:40:18;100247.47;;;-2.36;85.96
67517;BME280;54359;59.124;37.910;2023-01-27T12:43:17;100256.91;;;-2.34;86.47
67517;BME280;54359;59.124;37.910;2023-01-27T12:46:25;100251.09;;;-2.33;86.00
67517;BME280;54359;59.124;37.910;2023-01-27T12:49:11;100236.25;;;-2.41;85.13
67517;BME280;54359;59.124;37.910;2023-01-27T12:52:01;100224.19;;;-2.59;85.76
67517;BME280;54359;59.124;37.910;2023-01-27T12:54:30;100255.53;;;-2.42;86.00
67517;BME280;54359;59.124;37.910;2023-01-27T12:57:08;100237.72;;;-2.57;85.93
67517;BME280;54359;59.124;37.910;2023-01-27T12:59:45;100236.00;;;-2.58;86.18
67517;BME280;54359;59.124;37.910;2023-01-27T13:02:29;100236.97;;;-2.56;86.20
67517;BME280;54359;59.124;37.910;2023-01-27T13:05:01;100228.91;;;-2.64;86.00
67517;BME280;54359;59.124;37.910;2023-01-27T13:07:38;100255.53;;;-2.42;85.80
67517;BME280;54359;59.124;37.910;2023-01-27T13:10:24;100246.03;;;-2.46;86.16
67517;BME280;54359;59.124;37.910;2023-01-27T13:12:57;100270.06;;;-2.38;85.44
67517;BME280;54359;59.124;37.910;2023-01-27T13:15:25;100296.03;;;-2.26;86.44
67517;BME280;54359;59.124;37.910;2023-01-27T13:17:54;100257.28;;;-2.53;85.83
67517;BME280;54359;59.124;37.910;2023-01-27T13:20:43;100278.94;;;-2.43;85.42
67517;BME280;54359;59.124;37.910;2023-01-27T13:23:57;100275.31;;;-2.47;86.04
67517;BME280;54359;59.124;37.910;2023-01-27T13:30:29;100308.72;;;-2.49;85.50
67517;BME280;54359;59.124;37.910;2023-01-27T13:33:02;100295.72;;;-2.55;85.37
67517;BME280;54359;59.124;37.910;2023-01-27T13:35:38;100274.03;;;-2.78;86.09
67517;BME280;54359;59.124;37.910;2023-01-27T13:38:48;100266.69;;;-2.75;86.04
67517;BME280;54359;59.124;37.910;2023-01-27T13:41:28;100300.66;;;-2.57;86.23
67517;BME280;54359;59.124;37.910;2023-01-27T13:44:29;100301.63;;;-2.55;86.36
67517;BME280;54359;59.124;37.910;2023-01-27T13:50:29;100309.28;;;-2.53;85.57
67517;BME280;54359;59.124;37.910;2023-01-27T13:52:58;100313.44;;;-2.54;85.77
67517;BME280;54359;59.124;37.910;2023-01-27T14:07:53;100334.97;;;-2.46;86.17
67517;BME280;54359;59.124;37.910;2023-01-27T14:16:44;100349.84;;;-2.49;85.67
67517;BME280;54359;59.124;37.910;2023-01-27T14:22:08;100354.88;;;-2.49;85.96
67517;BME280;54359;59.124;37.910;2023-01-27T14:25:03;100347.59;;;-2.57;85.71
67517;BME280;54359;59.124;37.910;2023-01-27T14:27:45;100351.31;;;-2.52;85.90
67517;BME280;54359;59.124;37.910;2023-01-27T14:30:37;100336.34;;;-2.63;86.22
67517;BME280;54359;59.124;37.910;2023-01-27T14:33:57;100349.44;;;-2.55;85.62
67517;BME280;54359;59.124;37.910;2023-01-27T14:36:51;100356.44;;;-2.51;85.57
67517;BME280;54359;59.124;37.910;2023-01-27T14:39:39;100341.59;;;-2.59;86.04
67517;BME280;54359;59.124;37.910;2023-01-27T14:47:53;100354.53;;;-2.78;85.60
67517;BME280;54359;59.124;37.910;2023-01-27T14:50:45;100379.25;;;-2.73;86.14
67517;BME280;54359;59.124;37.910;2023-01-27T14:59:36;100399.16;;;-2.88;85.34
67517;BME280;54359;59.124;37.910;2023-01-27T15:02:58;100394.69;;;-2.92;85.24
67517;BME280;54359;59.124;37.910;2023-01-27T15:05:33;100404.66;;;-2.93;85.95
67517;BME280;54359;59.124;37.910;2023-01-27T15:08:40;100402.88;;;-2.94;85.67
67517;BME280;54359;59.124;37.910;2023-01-27T15:20:37;100420.63;;;-2.93;85.88
67517;BME280;54359;59.124;37.910;2023-01-27T15:23:25;100419.19;;;-2.89;85.55
67517;BME280;54359;59.124;37.910;2023-01-27T15:26:00;100401.78;;;-2.98;85.85
67517;BME280;54359;59.124;37.910;2023-01-27T15:28:41;100393.38;;;-2.98;85.74
67517;BME280;54359;59.124;37.910;2023-01-27T15:31:21;100431.00;;;-2.76;86.42
67517;BME280;54359;59.124;37.910;2023-01-27T15:36:38;100416.56;;;-2.79;86.13
67517;BME280;54359;59.124;37.910;2023-01-27T15:39:17;100431.53;;;-2.69;86.50
67517;BME280;54359;59.124;37.910;2023-01-27T15:46:54;100433.59;;;-2.63;86.05
67517;BME280;54359;59.124;37.910;2023-01-27T15:50:19;100441.56;;;-2.57;86.12
67517;BME280;54359;59.124;37.910;2023-01-27T15:52:51;100422.53;;;-2.65;85.39
67517;BME280;54359;59.124;37.910;2023-01-27T15:55:32;100451.97;;;-2.52;85.84
67517;BME280;54359;59.124;37.910;2023-01-27T15:58:26;100451.97;;;-2.52;85.71
67517;BME280;54359;59.124;37.910;2023-01-27T16:00:57;100459.53;;;-2.52;86.45
67517;BME280;54359;59.124;37.910;2023-01-27T16:03:56;100464.22;;;-2.45;86.91
67517;BME280;54359;59.124;37.910;2023-01-27T16:06:59;100456.25;;;-2.03;87.14
67517;BME280;54359;59.124;37.910;2023-01-27T16:09:54;100448.66;;;-1.91;86.56
67517;BME280;54359;59.124;37.910;2023-01-27T16:12:48;100438.16;;;-1.97;86.18
67517;BME280;54359;59.124;37.910;2023-01-27T16:15:33;100472.38;;;-1.87;86.39